CYSM

Fort Smith Airport

Fort Smith, Northwest Territories, Canada
METAR CYSM 181400Z 00000KT 3SM BR FEW220 M40/M44 A3047 RMK CI1 CI TR VIS E 1 SLP361
Observed Flight Rules
Jan-18 @ 14:00 UTC (21 minutes ago) Marginal Visual Flight Rules
Visibility Clouds Conditions
3 miles
  • Few at 22,000' AGL
  • Mist
Temperatures Readings
Current -40°C / -40°F
Dewpoint -44°C / -47°F
Humidity 65%
Altimeter 30.47" Hg
Pressure 1036.1 hPa
Elevation 203
METAR CYSM 181400Z 00000KT 3SM BR FEW220 M40/M44 A3047 RMK CI1 CI TR VIS E 1 SLP361
Observed Flight Rules
Jan-18 @ 14:00 UTC
(21 minutes ago)
MVFR
Clouds
  • Few at 22,000' AGL
Conditions
  • Mist
Temperature Dewpoint
-40°C / -40°F -44°C / -47°F
Humidity Altimeter Pressure
65% 30.47" Hg 1036.1 hPa